Time;durP1;ratioP1;P1;durP2;ratioP2;P2;SDS_P1;SDS_P2;PMS_P1;PMS_P2;Temp;Humidity;BMP_temperature;BMP_pressure;BME280_temperature;BME280_humidity;BME280_pressure;Samples;Min_cycle;Max_cycle;Signal;HPM_P1;HPM_P2
2022/08/18 00:02:04;;;;;;;11.10;8.37;;;;;;;20.79;86.73;101119.53;5100256;28;20192;-77
2022/08/18 00:04:31;;;;;;;9.57;8.67;;;;;;;20.79;87.33;101127.34;5064842;28;20553;-77
2022/08/18 00:06:57;;;;;;;11.10;9.27;;;;;;;20.77;87.11;101116.94;5082801;28;20266;-77
2022/08/18 00:09:23;;;;;;;10.43;9.30;;;;;;;20.78;87.66;101121.25;5084843;28;20216;-77
2022/08/18 00:11:49;;;;;;;9.63;8.73;;;;;;;20.79;87.74;101111.72;5084746;28;20214;-77
2022/08/18 00:14:18;;;;;;;10.33;9.43;;;;;;;20.79;87.65;101116.94;5073199;28;20232;-76
2022/08/18 00:16:44;;;;;;;11.07;9.97;;;;;;;20.78;88.10;101115.22;5097508;28;20739;-76
2022/08/18 00:19:09;;;;;;;11.07;10.03;;;;;;;20.78;88.33;101120.41;5097754;28;20204;-76
2022/08/18 00:21:35;;;;;;;10.97;9.97;;;;;;;20.78;88.51;101120.41;5081668;28;20239;-76
2022/08/18 00:24:00;;;;;;;11.77;10.67;;;;;;;20.75;88.66;101125.66;5079800;28;20188;-77
2022/08/18 00:26:26;;;;;;;11.23;10.33;;;;;;;20.75;88.90;101123.94;5081892;28;20219;-76
2022/08/18 00:28:52;;;;;;;13.10;11.80;;;;;;;20.76;88.96;101111.75;5061284;28;20543;-77
2022/08/18 00:31:17;;;;;;;13.40;11.97;;;;;;;20.76;89.01;101123.03;5094745;28;20255;-77
2022/08/18 00:33:43;;;;;;;13.27;12.13;;;;;;;20.78;88.89;101121.25;5066185;28;20184;-79
2022/08/18 00:36:10;;;;;;;13.23;11.87;;;;;;;20.74;88.97;101117.03;5066695;28;20192;-78
2022/08/18 00:38:36;;;;;;;12.47;11.20;;;;;;;20.73;88.84;101119.66;5081367;28;20212;-76
2022/08/18 00:41:01;;;;;;;14.13;12.83;;;;;;;20.72;89.47;101123.13;5083582;28;20218;-75
2022/08/18 00:43:45;;;;;;;13.73;12.33;;;;;;;20.71;89.62;101111.84;5099671;28;20184;-79
2022/08/18 00:46:17;;;;;;;12.80;11.60;;;;;;;20.75;89.12;101110.94;5093204;28;20192;-79
2022/08/18 00:48:43;;;;;;;13.40;12.20;;;;;;;20.73;89.28;101109.22;5084405;28;20180;-78
2022/08/18 00:51:18;;;;;;;13.33;12.00;;;;;;;20.74;89.02;101114.41;5084883;28;20212;-77
2022/08/18 00:53:49;;;;;;;14.53;13.00;;;;;;;20.73;89.53;101112.69;5063489;28;20662;-78
2022/08/18 00:56:23;;;;;;;14.33;12.83;;;;;;;20.73;89.16;101107.47;5096597;28;20237;-78
2022/08/18 00:58:58;;;;;;;14.50;13.10;;;;;;;20.71;89.04;101109.25;5097343;28;20214;-77
2022/08/18 01:01:27;;;;;;;16.00;14.33;;;;;;;20.73;88.93;101111.84;5081538;28;20219;-77
2022/08/18 01:03:59;;;;;;;15.57;13.37;;;;;;;20.71;89.01;101101.44;5066545;28;20193;-78
2022/08/18 01:06:40;;;;;;;16.23;13.50;;;;;;;20.71;89.20;101111.84;5076793;28;20216;-77
2022/08/18 01:09:07;;;;;;;15.80;13.80;;;;;;;20.69;89.03;101103.19;5085301;28;20210;-78
2022/08/18 01:11:35;;;;;;;15.97;14.40;;;;;;;20.65;89.30;101101.56;5101564;28;20250;-78
2022/08/18 01:14:02;;;;;;;15.63;14.23;;;;;;;20.65;89.02;101103.28;5096563;28;20192;-77
2022/08/18 01:22:06;;;;;;;15.70;14.10;;;;;;;20.65;89.12;101104.16;5087294;28;20662;-77
2022/08/18 01:27:18;;;;;;;16.60;14.67;;;;;;;20.59;88.54;101106.00;5082343;28;20283;-77
2022/08/18 01:29:48;;;;;;;16.57;14.23;;;;;;;20.60;88.51;101108.56;5096887;28;20569;-77
2022/08/18 01:32:19;;;;;;;14.47;13.00;;;;;;;20.60;88.76;101105.13;5067419;28;20184;-77
2022/08/18 01:34:46;;;;;;;15.70;14.07;;;;;;;20.57;88.46;101102.56;5083001;28;20466;-78
2022/08/18 01:37:14;;;;;;;15.67;14.17;;;;;;;20.58;88.40;101102.53;5080446;28;20664;-77
2022/08/18 01:39:40;;;;;;;14.90;13.37;;;;;;;20.58;88.60;101102.53;5064791;28;20212;-77
2022/08/18 01:42:05;;;;;;;15.33;13.60;;;;;;;20.56;88.05;101098.25;5078450;28;20196;-77
2022/08/18 01:44:32;;;;;;;15.43;13.90;;;;;;;20.56;87.79;101087.84;5095859;28;20188;-78
2022/08/18 01:46:57;;;;;;;14.67;13.17;;;;;;;20.54;88.28;101097.44;5097512;28;20214;-78
2022/08/18 01:49:23;;;;;;;15.27;13.87;;;;;;;20.51;88.49;101100.94;5096953;28;20176;-76
2022/08/18 01:51:48;;;;;;;15.53;14.00;;;;;;;20.54;87.50;101102.63;5063775;28;20192;-78
2022/08/18 01:54:14;;;;;;;15.53;14.00;;;;;;;20.52;87.73;101107.00;5062602;28;20743;-78
2022/08/18 01:56:41;;;;;;;16.53;13.87;;;;;;;20.47;88.02;101107.06;5062945;28;20184;-78
2022/08/18 01:59:12;;;;;;;15.93;14.30;;;;;;;20.42;88.11;101106.31;5080159;28;20204;-77
2022/08/18 02:01:40;;;;;;;15.57;14.03;;;;;;;20.35;88.43;101109.88;5082799;28;20212;-76
2022/08/18 02:04:06;;;;;;;14.80;13.27;;;;;;;20.38;88.32;101111.56;5066110;28;20202;-78
2022/08/18 02:06:33;;;;;;;16.17;14.07;;;;;;;20.33;88.24;101115.97;5100121;28;20520;-78
2022/08/18 02:08:58;;;;;;;17.67;14.70;;;;;;;20.28;89.00;101120.41;5067272;28;20246;-79
2022/08/18 02:11:24;;;;;;;14.17;12.90;;;;;;;20.19;89.42;101117.94;5068004;28;20196;-79
2022/08/18 02:13:49;;;;;;;16.73;13.77;;;;;;;20.08;90.08;101123.28;5067279;28;20196;-78
2022/08/18 02:16:15;;;;;;;15.20;13.70;;;;;;;20.11;89.95;101120.66;5064910;28;20184;-77
2022/08/18 02:18:41;;;;;;;14.97;13.57;;;;;;;20.09;89.70;101113.75;5097357;28;20212;-77
2022/08/18 02:21:10;;;;;;;15.30;13.87;;;;;;;20.03;90.45;101112.06;5083577;28;20218;-77
2022/08/18 02:23:37;;;;;;;15.30;13.97;;;;;;;20.02;90.06;101115.56;5096079;28;20196;-77
2022/08/18 02:26:07;;;;;;;15.33;13.73;;;;;;;19.98;90.08;101111.28;5080804;28;20188;-76
2022/08/18 02:28:33;;;;;;;15.60;14.00;;;;;;;19.92;90.31;101113.97;5084068;28;20210;-77
2022/08/18 02:31:14;;;;;;;17.33;15.63;;;;;;;19.85;90.97;101117.53;5098168;28;20208;-77
2022/08/18 02:33:41;;;;;;;17.30;15.67;;;;;;;19.73;91.13;101115.13;5078114;28;20275;-76
2022/08/18 02:36:07;;;;;;;18.60;16.97;;;;;;;19.68;91.63;101116.94;5064510;28;20253;-79
2022/08/18 02:38:33;;;;;;;18.17;16.47;;;;;;;19.67;91.85;101120.38;5064237;28;20314;-78
2022/08/18 02:41:02;;;;;;;17.53;15.80;;;;;;;19.63;91.90;101117.84;5064921;28;20716;-79
2022/08/18 02:43:29;;;;;;;19.90;17.87;;;;;;;19.60;91.90;101112.69;5082224;28;20204;-79
2022/08/18 02:45:56;;;;;;;18.43;16.47;;;;;;;19.56;91.87;101101.47;5094584;28;20250;-78
2022/08/18 02:48:33;;;;;;;17.43;15.73;;;;;;;19.51;92.08;101103.28;5076737;28;20225;-78
2022/08/18 02:51:17;;;;;;;18.53;16.83;;;;;;;19.46;92.14;101101.59;5100554;28;20240;-78
2022/08/18 02:53:45;;;;;;;18.27;16.50;;;;;;;19.43;92.60;101093.88;5101015;28;20190;-78
2022/08/18 02:56:22;;;;;;;17.77;16.07;;;;;;;19.31;92.94;101100.09;5099459;28;20569;-78
2022/08/18 02:58:52;;;;;;;18.63;16.83;;;;;;;19.29;93.05;101103.53;5074163;28;20209;-78
2022/08/18 03:01:20;;;;;;;18.03;16.27;;;;;;;19.29;93.10;101101.81;5072846;28;20276;-78
2022/08/18 03:03:46;;;;;;;18.63;16.73;;;;;;;19.23;93.16;101088.03;5080013;28;20204;-78
2022/08/18 03:06:12;;;;;;;18.70;16.90;;;;;;;19.17;93.27;101094.13;5098912;28;20188;-79
2022/08/18 03:08:37;;;;;;;20.07;18.00;;;;;;;19.08;93.69;101101.19;5099470;28;20221;-77
2022/08/18 03:11:03;;;;;;;20.10;18.23;;;;;;;19.12;93.54;101113.25;5099367;28;20204;-79
2022/08/18 03:13:29;;;;;;;20.90;18.90;;;;;;;19.06;94.25;101108.09;5082383;28;20208;-78
2022/08/18 03:15:55;;;;;;;21.33;19.23;;;;;;;19.07;94.51;101118.47;5081892;28;20184;-78
2022/08/18 03:18:22;;;;;;;21.33;19.13;;;;;;;19.00;94.46;101116.84;5105060;28;20264;-78
2022/08/18 03:20:49;;;;;;;21.57;19.03;;;;;;;18.95;94.51;101120.34;5090387;28;20204;-78
2022/08/18 03:23:15;;;;;;;20.83;18.70;;;;;;;18.84;94.44;101117.84;5103956;28;20196;-76
2022/08/18 03:25:48;;;;;;;20.50;18.50;;;;;;;18.78;94.56;101119.66;5082272;28;20204;-77
2022/08/18 03:28:15;;;;;;;19.23;17.33;;;;;;;18.77;94.58;101120.53;5081772;28;20267;-77
2022/08/18 03:30:42;;;;;;;19.37;17.57;;;;;;;18.82;94.12;101121.34;5085982;28;20204;-77
2022/08/18 03:33:08;;;;;;;20.07;18.23;;;;;;;18.87;94.07;101120.44;5101825;28;20176;-77
2022/08/18 03:35:35;;;;;;;19.80;17.73;;;;;;;18.78;94.35;101120.50;5085857;28;20212;-77
2022/08/18 03:38:01;;;;;;;21.27;19.07;;;;;;;18.76;95.00;101124.00;5099745;28;20624;-77
2022/08/18 03:40:27;;;;;;;21.37;19.30;;;;;;;18.78;94.64;101127.44;5103628;28;20291;-77
2022/08/18 03:42:52;;;;;;;21.90;19.60;;;;;;;18.70;94.60;101124.91;5085957;28;20224;-78
2022/08/18 03:45:18;;;;;;;20.13;18.23;;;;;;;18.65;95.16;101133.63;5104410;28;20193;-77
2022/08/18 03:47:44;;;;;;;20.13;18.03;;;;;;;18.62;94.93;101125.88;5082397;28;20192;-77
2022/08/18 03:50:11;;;;;;;21.33;19.43;;;;;;;18.56;94.66;101129.34;5085714;28;20237;-76
2022/08/18 03:52:37;;;;;;;19.50;17.57;;;;;;;18.49;95.15;101130.31;5103884;28;20184;-77
2022/08/18 03:55:04;;;;;;;20.47;18.50;;;;;;;18.50;95.26;101134.59;5103485;28;20868;-77
2022/08/18 03:57:31;;;;;;;22.37;19.73;;;;;;;18.50;95.43;101133.72;5085595;28;20279;-76
2022/08/18 03:59:57;;;;;;;20.97;18.93;;;;;;;18.51;95.03;101138.91;5083566;28;20219;-76
2022/08/18 04:02:22;;;;;;;19.77;17.93;;;;;;;18.45;95.46;101138.09;5082893;28;20192;-78
2022/08/18 04:04:48;;;;;;;22.13;19.93;;;;;;;18.50;94.74;101133.72;5100661;28;20250;-78
2022/08/18 04:07:16;;;;;;;22.00;19.77;;;;;;;18.42;95.07;101135.56;5065029;28;20189;-78
2022/08/18 04:09:42;;;;;;;21.23;19.23;;;;;;;18.40;95.11;101125.19;5084358;28;20208;-78
2022/08/18 04:12:11;;;;;;;21.83;19.63;;;;;;;18.39;95.92;101133.84;5071581;28;20273;-79
2022/08/18 04:14:39;;;;;;;21.10;18.93;;;;;;;18.38;95.86;101137.28;5063778;28;20201;-79
2022/08/18 04:17:04;;;;;;;23.00;20.67;;;;;;;18.37;95.71;101143.34;5068392;28;20264;-78
2022/08/18 04:19:33;;;;;;;22.73;19.97;;;;;;;18.32;95.54;101139.91;5084857;28;20239;-77
2022/08/18 04:21:59;;;;;;;22.70;20.70;;;;;;;18.41;95.04;101145.06;5068946;28;20321;-78
2022/08/18 04:24:27;;;;;;;22.80;20.50;;;;;;;18.35;95.03;101145.09;5083812;28;20189;-78
2022/08/18 04:26:55;;;;;;;21.53;19.63;;;;;;;18.35;95.15;101139.94;5097810;28;20193;-78
2022/08/18 04:29:20;;;;;;;22.63;20.47;;;;;;;18.38;95.30;101141.63;5100735;28;20179;-77
2022/08/18 04:31:47;;;;;;;21.60;19.60;;;;;;;18.46;95.10;101145.00;5067363;28;21708;-77
2022/08/18 04:34:13;;;;;;;22.57;20.23;;;;;;;18.42;94.46;101141.59;5083669;28;20199;-77
2022/08/18 04:36:40;;;;;;;21.70;19.73;;;;;;;18.40;95.33;101139.88;5082919;28;20188;-77
2022/08/18 04:39:07;;;;;;;21.03;19.00;;;;;;;18.48;95.04;101138.09;5082178;28;20220;-78
2022/08/18 04:41:34;;;;;;;21.40;19.10;;;;;;;18.53;94.87;101139.78;5061650;28;20229;-78
2022/08/18 04:44:03;;;;;;;21.50;19.40;;;;;;;18.55;95.08;101140.63;5084444;28;20682;-77
2022/08/18 04:46:34;;;;;;;21.43;19.40;;;;;;;18.62;95.43;101139.72;5068316;28;20191;-77
2022/08/18 04:48:59;;;;;;;22.67;20.50;;;;;;;18.69;95.02;101141.34;5081168;28;20193;-78
2022/08/18 04:51:28;;;;;;;22.97;20.83;;;;;;;18.73;95.17;101143.06;5082758;28;21042;-78
2022/08/18 04:53:54;;;;;;;21.87;19.87;;;;;;;18.80;95.50;101131.72;5062854;28;20189;-78
2022/08/18 04:56:25;;;;;;;23.50;21.20;;;;;;;18.92;95.83;101133.34;5084563;28;20636;-77
2022/08/18 04:59:12;;;;;;;23.40;21.20;;;;;;;19.05;95.87;101130.63;5084046;28;20362;-76
2022/08/18 05:01:44;;;;;;;23.13;20.80;;;;;;;19.08;96.27;101145.31;5081269;28;20212;-76
2022/08/18 05:04:12;;;;;;;22.60;20.50;;;;;;;19.12;96.39;101147.84;5083680;28;20192;-77
2022/08/18 05:06:38;;;;;;;22.37;20.33;;;;;;;19.22;96.41;101143.44;5098837;28;20181;-77
2022/08/18 05:09:07;;;;;;;21.33;19.37;;;;;;;19.34;95.68;101132.94;5083592;28;20185;-77
2022/08/18 05:11:34;;;;;;;19.70;17.70;;;;;;;19.45;95.63;101139.75;5081082;28;20234;-78
2022/08/18 05:14:02;;;;;;;21.77;19.77;;;;;;;19.51;95.47;101137.06;5100262;28;20243;-78
2022/08/18 05:16:28;;;;;;;21.97;19.93;;;;;;;19.57;95.70;101138.72;5100946;28;20204;-77
2022/08/18 05:18:53;;;;;;;19.80;17.90;;;;;;;19.62;96.29;101137.78;5100954;28;20251;-78
2022/08/18 05:21:21;;;;;;;21.57;19.53;;;;;;;19.65;96.38;101136.88;5103124;28;20235;-77
2022/08/18 05:23:48;;;;;;;21.70;19.70;;;;;;;19.69;96.03;101136.81;5068209;28;20188;-78
2022/08/18 05:26:15;;;;;;;21.70;19.47;;;;;;;19.76;95.85;101141.06;5081974;28;20185;-77
2022/08/18 05:28:42;;;;;;;21.20;19.30;;;;;;;19.82;95.76;101140.13;5067922;28;20259;-77
2022/08/18 05:31:14;;;;;;;22.03;19.53;;;;;;;19.86;95.87;101145.25;5070357;28;20216;-78
2022/08/18 05:33:40;;;;;;;21.93;19.83;;;;;;;19.92;96.00;101139.97;5076004;28;20177;-77
2022/08/18 05:36:17;;;;;;;21.17;19.17;;;;;;;20.07;95.39;101136.28;5083104;28;20272;-77
2022/08/18 05:39:12;;;;;;;22.60;20.40;;;;;;;20.11;95.15;101132.78;5077115;28;20236;-77
2022/08/18 05:41:42;;;;;;;23.27;20.87;;;;;;;20.19;94.90;101139.63;5096044;28;20223;-78
2022/08/18 05:44:16;;;;;;;23.43;21.13;;;;;;;20.26;95.02;101143.00;5098719;28;20180;-78
2022/08/18 05:46:51;;;;;;;23.17;20.80;;;;;;;20.27;95.06;101142.09;5080487;28;20188;-77
2022/08/18 05:49:18;;;;;;;24.00;21.57;;;;;;;20.28;95.32;101136.00;5080013;28;20253;-77
2022/08/18 05:51:56;;;;;;;23.60;21.23;;;;;;;20.30;95.39;101150.72;5087419;28;20250;-77
2022/08/18 05:57:14;;;;;;;24.23;21.97;;;;;;;20.64;94.88;101145.84;5082604;28;20441;-77
2022/08/18 05:59:41;;;;;;;25.23;21.93;;;;;;;20.59;95.06;101145.91;5081341;28;20223;-76
2022/08/18 06:02:27;;;;;;;25.03;22.43;;;;;;;20.53;95.39;101151.22;5080009;28;20739;-78
2022/08/18 06:04:55;;;;;;;22.77;20.67;;;;;;;20.72;94.66;101142.22;5081996;28;20280;-78
2022/08/18 06:07:36;;;;;;;21.50;19.57;;;;;;;20.93;93.47;101154.03;5083410;28;20316;-78
2022/08/18 06:10:06;;;;;;;24.17;21.83;;;;;;;21.09;92.94;101151.13;5065940;28;20196;-78
2022/08/18 06:12:48;;;;;;;23.60;21.23;;;;;;;21.16;91.14;101152.72;5056273;28;20209;-77
2022/08/18 06:15:45;;;;;;;21.17;18.97;;;;;;;21.44;89.68;101146.09;5066347;28;20716;-77
2022/08/18 06:18:38;;;;;;;20.83;18.77;;;;;;;21.60;88.67;101149.25;5082758;28;20199;-78
2022/08/18 06:21:34;;;;;;;22.60;20.10;;;;;;;21.59;88.72;101153.59;5077330;28;20222;-77
2022/08/18 06:24:26;;;;;;;20.17;17.97;;;;;;;21.72;88.21;101155.09;5099733;28;20234;-77
2022/08/18 06:27:16;;;;;;;21.10;18.67;;;;;;;21.77;87.72;101160.19;5079557;28;20220;-78
2022/08/18 06:30:06;;;;;;;20.40;18.40;;;;;;;22.00;87.09;101161.44;5061376;28;20193;-77
2022/08/18 06:32:51;;;;;;;20.10;18.07;;;;;;;22.40;85.80;101158.78;5054532;28;20230;-78
2022/08/18 06:35:23;;;;;;;19.73;17.93;;;;;;;22.37;84.82;101158.84;5040381;28;20201;-77
2022/08/18 06:40:46;;;;;;;17.90;16.20;;;;;;;22.44;84.37;101163.88;5098878;28;20301;-78
2022/08/18 06:43:15;;;;;;;17.10;15.37;;;;;;;22.52;84.36;101161.13;5064976;28;20188;-77
2022/08/18 06:45:49;;;;;;;15.97;14.43;;;;;;;22.09;85.65;101160.38;5097811;28;20204;-78
2022/08/18 06:48:30;;;;;;;18.37;16.57;;;;;;;21.50;87.97;101174.63;5101284;28;20723;-77
2022/08/18 06:50:59;;;;;;;19.00;17.07;;;;;;;21.48;88.79;101179.03;5103006;28;20219;-77
2022/08/18 06:53:52;;;;;;;20.57;18.57;;;;;;;21.27;89.54;101182.03;5085743;28;20188;-77
2022/08/18 06:56:32;;;;;;;20.37;18.47;;;;;;;21.17;90.24;101188.31;5093591;28;20247;-77
2022/08/18 06:59:35;;;;;;;24.43;22.03;;;;;;;20.91;91.30;101182.69;5100186;28;20697;-77
2022/08/18 07:02:24;;;;;;;24.57;22.27;;;;;;;20.78;92.46;101182.91;5084832;28;20255;-75
2022/08/18 07:05:18;;;;;;;28.07;25.37;;;;;;;20.68;92.38;101183.94;5081618;28;20204;-76
2022/08/18 07:07:43;;;;;;;29.27;26.03;;;;;;;20.62;92.68;101186.63;5102623;28;20230;-76
2022/08/18 07:10:15;;;;;;;34.67;31.10;;;;;;;20.52;92.66;101192.88;5085078;28;20677;-76
2022/08/18 07:12:41;;;;;;;35.73;32.03;;;;;;;20.66;91.58;101196.09;5102722;28;20199;-76
2022/08/18 07:15:11;;;;;;;35.57;31.67;;;;;;;20.75;91.07;101206.38;5087082;28;20188;-77
2022/08/18 07:17:37;;;;;;;38.83;34.63;;;;;;;20.49;92.21;101205.94;5104265;28;20763;-77
2022/08/18 07:20:16;;;;;;;37.63;33.57;;;;;;;20.56;92.11;101220.56;5083442;28;20709;-77
2022/08/18 07:22:53;;;;;;;45.73;37.87;;;;;;;20.26;94.00;101224.47;5098866;28;20256;-76
2022/08/18 07:25:23;;;;;;;43.87;35.73;;;;;;;20.41;93.67;101223.41;5079438;28;20184;-77
2022/08/18 07:27:51;;;;;;;49.00;38.77;;;;;;;20.39;92.93;101220.81;5084754;28;20192;-77
2022/08/18 07:30:18;;;;;;;46.93;37.90;;;;;;;20.25;93.91;101221.88;5085397;28;20204;-77
2022/08/18 07:32:58;;;;;;;53.63;41.07;;;;;;;20.09;94.78;101226.44;5082551;28;20184;-76
2022/08/18 07:35:50;;;;;;;60.93;43.57;;;;;;;19.97;95.89;101228.31;5063188;28;20196;-77
2022/08/18 07:38:28;;;;;;;59.93;41.97;;;;;;;20.15;95.11;101223.78;5064921;28;20202;-76
2022/08/18 07:41:14;;;;;;;56.20;41.70;;;;;;;20.26;94.59;101221.03;5084328;28;20243;-76
2022/08/18 07:43:52;;;;;;;53.07;39.87;;;;;;;20.20;94.68;101232.38;5081882;28;20199;-76
2022/08/18 07:46:24;;;;;;;50.53;37.27;;;;;;;20.28;94.28;101240.06;5082678;28;20222;-77
2022/08/18 07:48:49;;;;;;;50.50;37.60;;;;;;;20.20;93.91;101224.56;5079754;28;20251;-77
2022/08/18 07:51:28;;;;;;;51.93;36.77;;;;;;;20.26;93.77;101236.66;5065522;28;20212;-77
2022/08/18 07:54:08;;;;;;;50.33;35.70;;;;;;;20.36;93.13;101243.44;5068024;28;20631;-77
2022/08/18 07:56:45;;;;;;;47.07;34.40;;;;;;;20.29;92.69;101245.25;5077566;28;20192;-77
2022/08/18 07:59:22;;;;;;;46.83;34.07;;;;;;;20.10;94.00;101251.59;5068089;28;20211;-76
2022/08/18 08:01:56;;;;;;;47.13;35.23;;;;;;;20.09;93.57;101249.00;5066198;28;20335;-77
2022/08/18 08:04:48;;;;;;;45.27;36.33;;;;;;;19.91;94.62;101249.19;5079067;28;20196;-77
2022/08/18 08:07:29;;;;;;;44.83;35.60;;;;;;;20.08;94.18;101258.53;5065098;28;20550;-76
2022/08/18 08:10:20;;;;;;;42.93;34.33;;;;;;;20.22;92.72;101259.22;5080673;28;20216;-76
2022/08/18 08:13:07;;;;;;;43.83;36.07;;;;;;;20.21;93.02;101264.44;5078352;28;20217;-77
2022/08/18 08:15:56;;;;;;;41.37;34.33;;;;;;;20.25;92.94;101263.50;5077691;28;20184;-76
2022/08/18 08:18:53;;;;;;;45.63;37.77;;;;;;;20.07;93.63;101259.38;5077726;28;20218;-76
2022/08/18 08:21:22;;;;;;;49.27;36.20;;;;;;;20.15;93.75;101259.31;5074014;28;20204;-76
2022/08/18 08:23:56;;;;;;;54.17;39.30;;;;;;;20.05;94.16;101262.88;5079143;28;20193;-76
2022/08/18 08:26:47;;;;;;;48.80;37.57;;;;;;;20.02;94.48;101263.78;5057349;28;20192;-76
2022/08/18 08:29:15;;;;;;;57.60;40.30;;;;;;;20.04;94.44;101267.22;5082095;28;20215;-76
2022/08/18 08:31:53;;;;;;;54.03;39.43;;;;;;;20.15;94.22;101265.38;5062701;28;20212;-76
2022/08/18 08:34:23;;;;;;;53.10;40.10;;;;;;;20.15;94.20;101265.38;5074229;28;20233;-76
2022/08/18 08:36:56;;;;;;;51.73;38.30;;;;;;;20.29;94.25;101260.88;5077676;28;20193;-76
2022/08/18 08:39:49;;;;;;;50.13;36.90;;;;;;;20.45;93.40;101259.75;5096489;28;20234;-76
2022/08/18 08:42:38;;;;;;;49.30;34.63;;;;;;;20.50;92.49;101263.16;5072649;28;20238;-76
2022/08/18 08:45:16;;;;;;;48.27;36.83;;;;;;;20.43;92.57;101253.72;5079699;28;20208;-76
2022/08/18 08:48:17;;;;;;;51.93;37.20;;;;;;;20.48;92.51;101256.25;5080237;28;20699;-76
2022/08/18 08:50:54;;;;;;;46.73;34.80;;;;;;;20.56;92.38;101254.41;5065103;28;20215;-75
2022/08/18 08:53:33;;;;;;;45.47;33.57;;;;;;;20.60;91.98;101254.31;5079469;28;20187;-76
2022/08/18 08:56:05;;;;;;;49.97;35.13;;;;;;;20.65;91.99;101256.88;5065878;28;20252;-75
2022/08/18 08:58:41;;;;;;;43.67;32.67;;;;;;;20.81;90.66;101254.00;5066778;28;20215;-77
2022/08/18 09:01:13;;;;;;;43.23;33.50;;;;;;;20.95;90.87;101259.88;5083452;28;20212;-75
2022/08/18 09:03:51;;;;;;;46.43;33.93;;;;;;;21.01;90.00;101261.53;5059994;28;20279;-77
2022/08/18 09:06:19;;;;;;;48.47;34.80;;;;;;;21.17;89.25;101266.47;5062750;28;20192;-76
2022/08/18 09:08:57;;;;;;;44.10;34.27;;;;;;;21.34;88.60;101259.22;5065000;28;20239;-77
2022/08/18 09:11:47;;;;;;;42.87;32.83;;;;;;;21.52;87.61;101258.03;5100842;28;20219;-77
2022/08/18 09:14:13;;;;;;;46.03;33.57;;;;;;;21.53;86.38;101263.22;5076066;28;20181;-77
2022/08/18 09:17:00;;;;;;;43.37;32.80;;;;;;;21.52;86.48;101261.47;5061773;28;20207;-76
2022/08/18 09:19:43;;;;;;;45.23;32.90;;;;;;;21.61;85.65;101261.31;5098213;28;20180;-76
2022/08/18 09:22:23;;;;;;;40.87;31.37;;;;;;;21.77;85.78;101251.47;5082856;28;20188;-76
2022/08/18 09:24:52;;;;;;;43.67;31.90;;;;;;;21.87;85.24;101259.09;5049541;28;20267;-77
2022/08/18 09:27:40;;;;;;;40.73;31.93;;;;;;;21.95;85.01;101262.41;5066758;28;20207;-77
2022/08/18 09:30:27;;;;;;;39.87;33.10;;;;;;;21.92;84.83;101251.19;5078863;28;20228;-77
2022/08/18 09:33:19;;;;;;;41.63;32.57;;;;;;;21.97;85.36;101259.78;5096131;28;20231;-77
2022/08/18 09:36:18;;;;;;;41.23;33.67;;;;;;;22.00;84.70;101257.09;5066832;28;20208;-76
2022/08/18 09:42:02;;;;;;;35.60;30.10;;;;;;;22.43;83.06;101253.53;5084441;28;20234;-77
2022/08/18 09:44:39;;;;;;;39.10;31.73;;;;;;;22.51;81.78;101256.00;5097664;28;20242;-78
2022/08/18 09:47:06;;;;;;;37.83;32.17;;;;;;;22.43;82.51;101252.69;5077642;28;20189;-77
2022/08/18 09:49:45;;;;;;;40.77;33.37;;;;;;;22.42;81.98;101256.16;5076917;28;20251;-76
2022/08/18 09:52:19;;;;;;;40.67;32.77;;;;;;;22.47;81.78;101243.91;5077826;28;20184;-76
2022/08/18 09:54:59;;;;;;;37.70;31.93;;;;;;;22.58;81.69;101244.53;5094669;28;20181;-77
2022/08/18 09:57:30;;;;;;;39.37;31.80;;;;;;;22.61;80.75;101257.50;5094409;28;20176;-76
2022/08/18 10:00:18;;;;;;;37.37;31.00;;;;;;;22.61;80.16;101254.03;5094722;28;20212;-77
2022/08/18 10:02:47;;;;;;;38.00;31.47;;;;;;;22.75;80.39;101255.41;5074498;28;20192;-78
2022/08/18 10:05:21;;;;;;;37.93;31.33;;;;;;;22.82;80.16;101256.13;5081863;28;20681;-77
2022/08/18 10:07:49;;;;;;;36.47;29.70;;;;;;;22.90;79.51;101246.38;5091424;28;20560;-77
2022/08/18 10:10:41;;;;;;;33.07;27.23;;;;;;;23.13;79.68;101241.44;5079315;28;20220;-77
2022/08/18 10:13:22;;;;;;;29.40;25.80;;;;;;;23.35;78.55;101232.16;5081538;28;20197;-77
2022/08/18 10:16:06;;;;;;;32.30;26.63;;;;;;;23.43;77.47;101238.91;5081063;28;20203;-77
2022/08/18 10:18:55;;;;;;;30.47;25.37;;;;;;;23.63;77.07;101247.09;5060852;28;20184;-77
2022/08/18 10:21:27;;;;;;;27.13;23.83;;;;;;;23.78;75.42;101249.28;5096592;28;20212;-78
2022/08/18 10:24:07;;;;;;;30.33;25.98;;;;;;;23.66;75.85;101246.16;5082961;28;20208;-78
2022/08/18 10:26:33;;;;;;;32.20;25.92;;;;;;;23.67;75.48;101243.47;5099702;28;20194;-77
2022/08/18 10:29:11;;;;;;;30.55;24.88;;;;;;;23.82;76.03;101244.81;5081524;28;20236;-77
2022/08/18 10:31:55;;;;;;;29.63;24.48;;;;;;;23.78;75.81;101241.41;5071289;28;20211;-78
2022/08/18 10:34:42;;;;;;;25.95;23.15;;;;;;;24.30;73.77;101240.78;5055793;28;20189;-78
2022/08/18 10:37:20;;;;;;;27.50;23.70;;;;;;;25.08;71.28;101247.00;5073693;28;21664;-76
2022/08/18 10:39:50;;;;;;;26.98;22.50;;;;;;;25.53;67.90;101244.56;5049434;28;20216;-76
2022/08/18 10:42:23;;;;;;;26.00;21.77;;;;;;;25.34;68.63;101246.13;5060132;28;20204;-78
2022/08/18 10:44:54;;;;;;;24.65;22.10;;;;;;;25.33;69.03;101247.06;5057928;28;20204;-78
2022/08/18 10:47:28;;;;;;;27.08;24.27;;;;;;;25.04;68.16;101247.16;5059534;28;20193;-78
2022/08/18 10:49:54;;;;;;;27.10;24.17;;;;;;;25.17;69.57;101246.69;5063421;28;20231;-79
2022/08/18 10:52:38;;;;;;;26.92;22.92;;;;;;;25.48;68.83;101249.13;5080842;28;20642;-78
2022/08/18 10:55:22;;;;;;;23.50;21.08;;;;;;;25.49;69.41;101249.09;5063501;28;20196;-78
2022/08/18 10:58:03;;;;;;;23.55;21.15;;;;;;;25.12;68.90;101245.97;5092169;28;20292;-78
2022/08/18 11:00:39;;;;;;;25.35;22.83;;;;;;;25.01;70.21;101245.47;5095678;28;20200;-77
2022/08/18 11:03:21;;;;;;;29.30;24.00;;;;;;;25.01;69.87;101242.84;5080820;28;20294;-76
2022/08/18 11:05:46;;;;;;;26.77;23.85;;;;;;;25.04;70.37;101250.63;5098473;28;20196;-76
2022/08/18 11:08:16;;;;;;;25.25;22.25;;;;;;;25.32;69.94;101248.81;5080869;28;20274;-76
2022/08/18 11:10:47;;;;;;;24.60;21.17;;;;;;;25.58;69.32;101240.91;5066783;28;20224;-77
2022/08/18 11:13:31;;;;;;;25.88;23.10;;;;;;;25.89;68.19;101245.88;5082040;28;20196;-77
2022/08/18 11:16:38;;;;;;;24.50;21.63;;;;;;;26.57;64.69;101234.50;5082138;28;20200;-75
2022/08/18 11:19:11;;;;;;;24.20;21.60;;;;;;;27.15;63.15;101235.59;5098251;28;20192;-77
2022/08/18 11:21:38;;;;;;;23.98;21.00;;;;;;;27.33;61.73;101230.44;5090849;28;20227;-77
2022/08/18 11:24:26;;;;;;;22.20;18.35;;;;;;;28.01;61.29;101227.41;5082913;28;20205;-77
2022/08/18 11:26:53;;;;;;;21.75;19.25;;;;;;;27.89;60.46;101228.81;5072908;28;20284;-78
2022/08/18 11:29:40;;;;;;;22.55;20.30;;;;;;;27.59;60.76;101230.13;5082449;28;20228;-77
2022/08/18 11:32:27;;;;;;;18.88;17.08;;;;;;;28.12;58.26;101225.97;5081809;28;20246;-77
2022/08/18 11:35:03;;;;;;;20.63;18.60;;;;;;;28.38;58.42;101230.88;5078056;28;20185;-77
2022/08/18 11:37:43;;;;;;;19.15;17.25;;;;;;;28.72;57.05;101224.84;5082186;28;20188;-76
2022/08/18 11:40:30;;;;;;;18.95;17.05;;;;;;;29.33;55.80;101232.28;5099707;28;20219;-77
2022/08/18 11:43:08;;;;;;;20.02;17.98;;;;;;;29.08;54.46;101228.31;5066339;28;20212;-77
2022/08/18 11:45:51;;;;;;;16.98;15.43;;;;;;;29.94;55.14;101224.66;5062999;28;20188;-77
2022/08/18 11:48:28;;;;;;;19.27;17.33;;;;;;;29.44;55.71;101222.03;5067455;28;20193;-77
2022/08/18 11:50:53;;;;;;;21.25;19.10;;;;;;;28.97;55.24;101220.06;5083147;28;20226;-77
2022/08/18 11:53:43;;;;;;;19.98;18.08;;;;;;;28.39;55.84;101221.16;5101919;28;20251;-78
2022/08/18 11:56:15;;;;;;;21.15;18.90;;;;;;;28.52;57.20;101220.56;5082997;28;20191;-77